Time;durP1;ratioP1;P1;durP2;ratioP2;P2;SDS_P1;SDS_P2;PMS_P1;PMS_P2;Temp;Humidity;BMP_temperature;BMP_pressure;BME280_temperature;BME280_humidity;BME280_pressure;Samples;Min_cycle;Max_cycle;Signal;HPM_P1;HPM_P2
2024/04/23 00:02:04;;;;;;;2.03;1.20;;;4.60;99.90;;;;;;5508306;26;20006;-59
2024/04/23 00:04:30;;;;;;;1.27;1.00;;;4.50;99.90;;;;;;5489142;26;20016;-56
2024/04/23 00:06:56;;;;;;;2.95;1.45;;;4.50;99.90;;;;;;5489113;26;20066;-56
2024/04/23 00:09:22;;;;;;;3.47;1.77;;;4.50;99.90;;;;;;5488950;26;20458;-58
2024/04/23 00:11:47;;;;;;;2.35;1.50;;;4.50;99.90;;;;;;5488852;26;19998;-56
2024/04/23 00:14:13;;;;;;;3.70;1.30;;;4.40;99.90;;;;;;5489023;26;20009;-56
2024/04/23 00:16:39;;;;;;;2.50;1.42;;;4.40;99.90;;;;;;5488924;26;20466;-56
2024/04/23 00:19:04;;;;;;;1.40;1.10;;;4.40;99.90;;;;;;5489804;26;20006;-56
2024/04/23 00:21:30;;;;;;;6.40;1.33;;;4.40;99.90;;;;;;5489142;26;19994;-52
2024/04/23 00:23:55;;;;;;;1.77;1.20;;;4.40;99.90;;;;;;5488808;26;20451;-56
2024/04/23 00:26:21;;;;;;;2.85;1.10;;;4.50;99.90;;;;;;5488450;26;20088;-56
2024/04/23 00:28:47;;;;;;;2.08;1.27;;;4.50;99.90;;;;;;5488725;26;19998;-72
2024/04/23 00:31:12;;;;;;;2.33;1.23;;;4.50;99.90;;;;;;5456651;26;20006;-56
2024/04/23 00:33:38;;;;;;;3.03;1.35;;;4.50;99.90;;;;;;5426474;26;20009;-56
2024/04/23 00:36:04;;;;;;;2.33;1.48;;;4.50;99.90;;;;;;5490145;26;20005;-57
2024/04/23 00:38:29;;;;;;;5.72;1.75;;;4.50;99.90;;;;;;5488635;26;20006;-56
2024/04/23 00:40:55;;;;;;;2.05;1.15;;;4.50;99.90;;;;;;5487233;26;20006;-56
2024/04/23 00:43:20;;;;;;;1.50;1.40;;;4.40;99.90;;;;;;5488395;26;20442;-56
2024/04/23 00:45:55;;;;;;;4.03;2.22;;;4.40;99.90;;;;;;5488158;26;19990;-57
2024/04/23 00:48:22;;;;;;;1.63;1.48;;;4.40;99.90;;;;;;5488513;26;20002;-56
2024/04/23 00:50:48;;;;;;;2.85;1.00;;;4.40;99.90;;;;;;5488339;26;20469;-56
2024/04/23 00:53:15;;;;;;;1.40;1.05;;;4.40;99.90;;;;;;5488375;26;20026;-55
2024/04/23 00:55:42;;;;;;;1.13;1.00;;;4.30;99.90;;;;;;5487751;26;20016;-56
2024/04/23 00:58:08;;;;;;;2.17;0.95;;;4.30;99.90;;;;;;5488316;26;20006;-54
2024/04/23 01:00:34;;;;;;;1.38;1.27;;;4.20;99.90;;;;;;5488258;26;19998;-55
2024/04/23 01:03:00;;;;;;;5.28;1.25;;;4.20;99.90;;;;;;5487525;26;20012;-55
2024/04/23 01:05:26;;;;;;;2.35;1.38;;;4.10;99.90;;;;;;5487227;26;20006;-55
2024/04/23 01:07:52;;;;;;;4.43;1.20;;;4.10;99.90;;;;;;5455876;26;20047;-54
2024/04/23 01:10:18;;;;;;;2.38;1.30;;;4.00;99.90;;;;;;5482379;26;20459;-52
2024/04/23 01:12:44;;;;;;;2.45;1.35;;;4.10;99.90;;;;;;5451677;26;20343;-56
2024/04/23 01:15:12;;;;;;;1.48;1.17;;;4.10;99.90;;;;;;5420003;26;20010;-57
2024/04/23 01:17:39;;;;;;;2.05;1.05;;;4.00;99.90;;;;;;5452750;26;20487;-57
2024/04/23 01:20:08;;;;;;;1.60;1.40;;;4.00;99.90;;;;;;5451730;26;19991;-55
2024/04/23 01:22:46;;;;;;;1.73;1.38;;;4.00;99.90;;;;;;5451389;26;20324;-56
2024/04/23 01:25:22;;;;;;;1.55;1.30;;;4.00;99.90;;;;;;5413714;26;20073;-44
2024/04/23 01:27:48;;;;;;;1.20;0.98;;;4.10;99.90;;;;;;5473100;26;20451;-44
2024/04/23 01:30:16;;;;;;;2.72;1.33;;;4.10;99.90;;;;;;5485952;26;20367;-43
2024/04/23 01:32:44;;;;;;;2.22;1.70;;;4.10;99.90;;;;;;5487917;26;20592;-48
2024/04/23 01:35:12;;;;;;;2.25;1.60;;;4.10;99.90;;;;;;5473258;26;20501;-47
2024/04/23 01:37:42;;;;;;;2.38;1.40;;;4.20;99.90;;;;;;5415187;26;20000;-45
2024/04/23 01:40:09;;;;;;;2.63;1.50;;;4.20;99.90;;;;;;5413489;26;20333;-45
2024/04/23 01:42:36;;;;;;;2.53;1.42;;;4.20;99.90;;;;;;5415208;26;20058;-43
2024/04/23 01:45:03;;;;;;;3.45;1.45;;;4.20;99.90;;;;;;5449354;26;20500;-42
2024/04/23 01:47:28;;;;;;;2.63;1.48;;;4.10;99.90;;;;;;5450919;26;20454;-46
2024/04/23 01:49:55;;;;;;;2.80;1.55;;;4.20;99.90;;;;;;5451064;26;19995;-45
2024/04/23 01:52:21;;;;;;;3.45;1.85;;;4.20;99.90;;;;;;5449078;26;19995;-48
2024/04/23 01:54:47;;;;;;;4.57;1.70;;;4.10;99.90;;;;;;5451055;26;20010;-55
2024/04/23 01:57:14;;;;;;;1.48;1.38;;;4.10;99.90;;;;;;5448982;26;19999;-58
2024/04/23 02:00:05;;;;;;;1.38;1.17;;;4.10;99.90;;;;;;5419687;26;19995;-57
2024/04/23 02:02:32;;;;;;;2.88;1.40;;;4.00;99.90;;;;;;5448873;26;20458;-58
2024/04/23 02:04:59;;;;;;;0.90;0.77;;;4.00;99.90;;;;;;5449578;26;20452;-56
2024/04/23 02:07:25;;;;;;;1.73;1.27;;;4.00;99.90;;;;;;5454826;26;20128;-54
2024/04/23 02:09:52;;;;;;;2.88;1.60;;;4.00;99.90;;;;;;5454214;26;20006;-57
2024/04/23 02:12:22;;;;;;;2.22;1.38;;;3.90;99.90;;;;;;5454389;26;20361;-55
2024/04/23 02:14:47;;;;;;;1.92;1.52;;;3.80;99.90;;;;;;5454368;26;19998;-57
2024/04/23 02:17:14;;;;;;;4.47;1.38;;;3.70;99.90;;;;;;5455243;26;20392;-57
2024/04/23 02:19:40;;;;;;;3.35;1.13;;;3.70;99.90;;;;;;5454341;26;20331;-55
2024/04/23 02:22:05;;;;;;;2.15;1.40;;;3.60;99.90;;;;;;5453995;26;19995;-57
2024/04/23 02:24:31;;;;;;;1.50;1.30;;;3.50;99.90;;;;;;5457399;26;20009;-44
2024/04/23 02:26:57;;;;;;;2.55;1.45;;;3.50;99.90;;;;;;5490616;26;20006;-47
2024/04/23 02:29:22;;;;;;;2.25;1.10;;;3.50;99.90;;;;;;5490561;26;19998;-45
2024/04/23 02:31:48;;;;;;;1.73;1.40;;;3.50;99.90;;;;;;5490645;26;20359;-44
2024/04/23 02:34:14;;;;;;;4.85;1.77;;;3.50;99.90;;;;;;5459551;26;19997;-66
2024/04/23 02:36:39;;;;;;;8.07;1.63;;;3.40;99.90;;;;;;5490095;26;20461;-44
2024/04/23 02:39:05;;;;;;;1.30;1.10;;;3.40;99.90;;;;;;5490323;26;20126;-46
2024/04/23 02:41:36;;;;;;;2.17;1.60;;;3.30;99.90;;;;;;5490246;26;20404;-45
2024/04/23 02:44:03;;;;;;;6.65;2.20;;;3.30;99.90;;;;;;5458374;26;20070;-45
2024/04/23 02:46:50;;;;;;;7.82;1.80;;;3.30;99.90;;;;;;5490195;26;19999;-66
2024/04/23 02:49:15;;;;;;;3.03;1.45;;;3.30;99.90;;;;;;5490223;26;20530;-43
2024/04/23 02:51:53;;;;;;;2.47;1.42;;;3.30;99.90;;;;;;5491313;26;20002;-43
2024/04/23 02:54:19;;;;;;;3.50;1.98;;;3.30;99.90;;;;;;5489907;26;20002;-43
2024/04/23 02:56:48;;;;;;;1.38;1.13;;;3.30;99.90;;;;;;5490181;26;19998;-46
2024/04/23 02:59:15;;;;;;;1.73;1.45;;;3.30;99.90;;;;;;5490245;26;19994;-44
2024/04/23 03:01:40;;;;;;;2.05;1.73;;;3.30;99.90;;;;;;5489933;26;20451;-46
2024/04/23 03:04:06;;;;;;;1.67;1.58;;;3.30;99.90;;;;;;5490113;26;19994;-42
2024/04/23 03:06:32;;;;;;;4.13;1.67;;;3.30;99.90;;;;;;5490335;26;19994;-44
2024/04/23 03:08:58;;;;;;;2.33;1.25;;;3.30;99.90;;;;;;5452822;26;19995;-44
2024/04/23 03:11:23;;;;;;;2.55;1.38;;;3.30;99.90;;;;;;5482973;26;19998;-45
2024/04/23 03:13:49;;;;;;;5.18;1.83;;;3.30;99.90;;;;;;5489794;26;20059;-47
2024/04/23 03:16:15;;;;;;;3.58;1.70;;;3.30;99.90;;;;;;5489088;26;19994;-47
2024/04/23 03:18:40;;;;;;;2.05;1.67;;;3.30;99.90;;;;;;5457049;26;19998;-45
2024/04/23 03:21:06;;;;;;;2.38;1.85;;;3.20;99.90;;;;;;5489618;26;20288;-47
2024/04/23 03:23:32;;;;;;;2.55;1.80;;;3.30;99.90;;;;;;5489611;26;20451;-44
2024/04/23 03:25:57;;;;;;;2.28;1.50;;;3.20;99.90;;;;;;5490531;26;19998;-47
2024/04/23 03:28:23;;;;;;;3.10;1.40;;;3.20;99.90;;;;;;5489680;26;20035;-42
2024/04/23 03:30:48;;;;;;;3.63;2.58;;;3.20;99.90;;;;;;5489748;26;19998;-48
2024/04/23 03:33:14;;;;;;;3.85;2.15;;;3.20;99.90;;;;;;5489900;26;20339;-45
2024/04/23 03:35:40;;;;;;;3.55;1.65;;;3.10;99.90;;;;;;5489347;26;20005;-45
2024/04/23 03:38:05;;;;;;;4.57;1.77;;;3.10;99.90;;;;;;5489355;26;19998;-55
2024/04/23 03:40:31;;;;;;;2.45;1.70;;;3.10;99.90;;;;;;5489488;26;19999;-57
2024/04/23 03:42:57;;;;;;;2.83;1.77;;;3.10;99.90;;;;;;5490363;26;19998;-57
2024/04/23 03:45:22;;;;;;;3.42;1.75;;;3.10;99.90;;;;;;5489404;26;19994;-57
2024/04/23 03:47:48;;;;;;;2.67;1.65;;;3.00;99.90;;;;;;5489093;26;19998;-56
2024/04/23 03:50:14;;;;;;;4.68;2.10;;;3.00;99.90;;;;;;5489350;26;20005;-49
2024/04/23 03:52:39;;;;;;;4.50;2.03;;;3.00;99.90;;;;;;5489197;26;19998;-46
2024/04/23 03:55:05;;;;;;;5.40;2.55;;;3.00;99.90;;;;;;5489618;26;19998;-45
2024/04/23 03:57:31;;;;;;;8.93;2.97;;;3.00;99.90;;;;;;5489199;26;20514;-44
2024/04/23 03:59:56;;;;;;;6.30;2.03;;;3.00;99.90;;;;;;5490261;26;20002;-45
2024/04/23 04:07:50;;;;;;;5.47;1.92;;;3.00;99.90;;;;;;5489021;26;20004;-44
2024/04/23 04:10:16;;;;;;;4.13;2.33;;;3.00;99.90;;;;;;5488898;26;19994;-46
2024/04/23 04:12:41;;;;;;;5.45;2.58;;;3.00;99.90;;;;;;5489050;26;20380;-57
2024/04/23 04:15:07;;;;;;;3.80;2.00;;;3.00;99.90;;;;;;5489195;26;20740;-58
2024/04/23 04:17:32;;;;;;;5.78;2.40;;;3.00;99.90;;;;;;5490084;26;19994;-62
2024/04/23 04:19:58;;;;;;;3.80;2.05;;;3.00;99.90;;;;;;5488909;26;20342;-56
2024/04/23 04:22:24;;;;;;;8.52;1.90;;;3.00;99.90;;;;;;5489036;26;20009;-57
2024/04/23 04:24:50;;;;;;;4.57;2.60;;;2.90;99.90;;;;;;5488979;26;20002;-57
2024/04/23 04:27:15;;;;;;;6.20;2.30;;;2.90;99.90;;;;;;5489373;26;20362;-57
2024/04/23 04:29:41;;;;;;;6.65;1.92;;;2.90;99.90;;;;;;5488577;26;19997;-57
2024/04/23 04:32:09;;;;;;;3.95;2.28;;;2.90;99.90;;;;;;5489102;26;20454;-56
2024/04/23 04:34:35;;;;;;;8.55;2.97;;;2.90;99.90;;;;;;5489847;26;20009;-59
2024/04/23 04:37:01;;;;;;;4.05;2.03;;;2.90;99.90;;;;;;5488823;26;19994;-57
2024/04/23 04:39:26;;;;;;;6.00;2.42;;;2.90;99.90;;;;;;5488538;26;20001;-56
2024/04/23 04:41:52;;;;;;;3.92;2.30;;;2.90;99.90;;;;;;5488361;26;20006;-56
2024/04/23 04:44:17;;;;;;;3.65;2.45;;;2.90;99.90;;;;;;5488880;26;19995;-47
2024/04/23 04:46:43;;;;;;;6.30;2.47;;;2.90;99.90;;;;;;5488655;26;20013;-46
2024/04/23 04:49:09;;;;;;;6.97;2.60;;;2.90;99.90;;;;;;5488424;26;20030;-45
2024/04/23 04:51:34;;;;;;;5.05;2.50;;;3.00;99.90;;;;;;5489522;26;20078;-52
2024/04/23 04:54:00;;;;;;;5.53;2.60;;;3.00;99.90;;;;;;5488502;26;20009;-44
2024/04/23 04:56:29;;;;;;;8.02;3.40;;;3.00;99.90;;;;;;5488345;26;19998;-47
2024/04/23 04:58:54;;;;;;;6.72;2.97;;;3.00;99.90;;;;;;5488224;26;20467;-55
2024/04/23 05:01:20;;;;;;;2.25;2.05;;;3.00;99.90;;;;;;5488094;26;20074;-56
2024/04/23 05:03:45;;;;;;;10.57;2.97;;;3.10;99.90;;;;;;5487969;26;20353;-56
2024/04/23 05:06:11;;;;;;;4.30;2.75;;;3.00;99.90;;;;;;5488382;26;19994;-59
2024/04/23 05:08:36;;;;;;;5.82;2.47;;;3.10;99.90;;;;;;5513663;26;20008;-54
2024/04/23 05:11:02;;;;;;;5.43;2.63;;;3.10;99.90;;;;;;5500072;26;20006;-56
2024/04/23 05:13:28;;;;;;;3.38;2.33;;;3.10;99.90;;;;;;5488132;26;20002;-57
2024/04/23 05:15:53;;;;;;;3.70;2.70;;;3.10;99.90;;;;;;5487995;26;19998;-58
2024/04/23 05:18:19;;;;;;;5.28;2.83;;;3.20;99.90;;;;;;5488255;26;20319;-57
2024/04/23 05:20:45;;;;;;;5.57;2.65;;;3.20;99.90;;;;;;5455629;26;19994;-56
2024/04/23 05:23:11;;;;;;;11.02;3.05;;;3.30;99.90;;;;;;5487741;26;20030;-57
2024/04/23 05:25:37;;;;;;;5.38;3.45;;;3.40;99.90;;;;;;5426534;26;20454;-56
2024/04/23 05:28:02;;;;;;;4.18;2.55;;;3.40;99.90;;;;;;5487828;26;20022;-57
2024/04/23 05:33:13;;;;;;;4.25;2.63;;;3.60;99.90;;;;;;5487594;26;20010;-56
2024/04/23 05:35:39;;;;;;;6.20;2.75;;;3.70;99.90;;;;;;5487414;26;20435;-56
2024/04/23 05:38:05;;;;;;;6.50;3.50;;;3.70;99.90;;;;;;5487497;26;19998;-56
2024/04/23 05:40:31;;;;;;;4.40;2.83;;;3.80;99.90;;;;;;5488815;26;20491;-54
2024/04/23 05:42:57;;;;;;;6.55;3.03;;;3.90;99.90;;;;;;5522267;26;20001;-57
2024/04/23 05:45:22;;;;;;;4.85;2.97;;;3.90;99.90;;;;;;5527797;26;20009;-60
2024/04/23 05:48:25;;;;;;;10.18;3.28;;;4.00;99.90;;;;;;5527981;26;19993;-57
2024/04/23 05:51:29;;;;;;;4.18;3.05;;;4.10;99.90;;;;;;5493259;26;20016;-55
2024/04/23 05:54:32;;;;;;;5.90;3.17;;;4.30;99.90;;;;;;5490505;26;20364;-57
2024/04/23 05:56:57;;;;;;;9.13;3.28;;;4.40;99.90;;;;;;5454782;26;20491;-57
2024/04/23 05:59:23;;;;;;;6.28;3.22;;;4.50;99.90;;;;;;5454433;26;19995;-55
2024/04/23 06:01:48;;;;;;;5.15;3.58;;;4.60;99.90;;;;;;5454502;26;19999;-56
2024/04/23 06:04:14;;;;;;;4.53;3.15;;;4.70;99.90;;;;;;5464151;26;20464;-55
2024/04/23 06:06:40;;;;;;;4.63;3.10;;;4.80;99.90;;;;;;5490868;26;19998;-56
2024/04/23 06:09:05;;;;;;;4.93;3.45;;;4.90;99.90;;;;;;5490691;26;20451;-56
2024/04/23 06:11:31;;;;;;;5.43;3.33;;;5.10;99.90;;;;;;5490202;26;20389;-55
2024/04/23 06:14:09;;;;;;;5.97;3.35;;;5.10;99.90;;;;;;5490853;26;20008;-55
2024/04/23 06:16:35;;;;;;;8.20;4.10;;;5.20;99.90;;;;;;5454299;26;20320;-57
2024/04/23 06:19:00;;;;;;;6.63;3.95;;;5.30;99.90;;;;;;5454359;26;20101;-54
2024/04/23 06:21:26;;;;;;;8.90;4.43;;;5.40;99.90;;;;;;5454137;26;20459;-64
2024/04/23 06:23:52;;;;;;;7.95;4.35;;;5.50;99.90;;;;;;5454363;26;19995;-58
2024/04/23 06:26:18;;;;;;;5.63;3.65;;;5.60;99.90;;;;;;5485772;26;19998;-53
2024/04/23 06:28:43;;;;;;;9.15;4.22;;;5.70;99.90;;;;;;5490604;26;19994;-56
2024/04/23 06:31:12;;;;;;;6.30;4.00;;;5.80;99.90;;;;;;5489793;26;19998;-57
2024/04/23 06:33:38;;;;;;;7.68;4.65;;;5.90;99.90;;;;;;5490318;26;20434;-56
2024/04/23 06:36:04;;;;;;;12.65;5.03;;;5.90;99.90;;;;;;5490698;26;20002;-59
2024/04/23 06:38:30;;;;;;;12.95;5.38;;;6.00;99.90;;;;;;5458155;26;20450;-56
2024/04/23 06:40:55;;;;;;;6.72;4.18;;;6.10;99.90;;;;;;5457384;26;20006;-56
2024/04/23 06:43:21;;;;;;;12.90;4.50;;;6.20;99.90;;;;;;5471180;26;19994;-57
2024/04/23 06:45:49;;;;;;;10.77;4.40;;;6.30;99.90;;;;;;5490250;26;20499;-57
2024/04/23 06:48:15;;;;;;;9.10;3.78;;;6.40;99.90;;;;;;5490108;26;20614;-57
2024/04/23 06:50:44;;;;;;;8.18;3.78;;;6.50;99.90;;;;;;5489389;26;20010;-57
2024/04/23 06:53:10;;;;;;;6.78;4.25;;;6.50;99.90;;;;;;5490259;26;19994;-57
2024/04/23 06:55:36;;;;;;;7.63;3.92;;;6.70;99.90;;;;;;5490012;26;20455;-56
2024/04/23 06:58:02;;;;;;;8.35;4.18;;;6.80;99.90;;;;;;5489827;26;19998;-57
2024/04/23 07:00:27;;;;;;;8.38;4.60;;;6.90;99.90;;;;;;5489704;26;20454;-54
2024/04/23 07:02:53;;;;;;;10.13;4.07;;;7.00;99.90;;;;;;5490161;26;20075;-51
2024/04/23 07:05:19;;;;;;;9.52;3.40;;;7.10;99.90;;;;;;5490057;26;20003;-63
2024/04/23 07:07:44;;;;;;;9.38;4.15;;;7.10;99.90;;;;;;5450970;26;20014;-58
2024/04/23 07:10:10;;;;;;;7.32;4.03;;;7.20;99.90;;;;;;5486960;26;20002;-58
2024/04/23 07:12:36;;;;;;;9.15;3.55;;;7.40;99.90;;;;;;5458064;26;20034;-58
2024/04/23 07:15:01;;;;;;;4.38;3.50;;;7.50;99.90;;;;;;5490009;26;20002;-59
2024/04/23 07:17:27;;;;;;;4.45;2.83;;;7.60;99.90;;;;;;5489600;26;19994;-58
2024/04/23 07:19:52;;;;;;;8.18;4.03;;;7.60;99.90;;;;;;5457906;26;20034;-57
2024/04/23 07:22:18;;;;;;;7.47;3.80;;;7.60;99.90;;;;;;5487215;26;20084;-55
2024/04/23 07:24:44;;;;;;;6.63;3.17;;;7.70;99.90;;;;;;5489125;26;20022;-56
2024/04/23 07:27:09;;;;;;;4.45;3.30;;;7.80;99.90;;;;;;5489686;26;19991;-54
2024/04/23 07:29:35;;;;;;;4.82;3.05;;;8.00;99.90;;;;;;5489990;26;20012;-62
2024/04/23 07:32:01;;;;;;;3.72;2.47;;;8.20;99.90;;;;;;5489433;26;20358;-53
2024/04/23 07:34:26;;;;;;;3.42;2.53;;;8.10;99.90;;;;;;5489064;26;20002;-55
2024/04/23 07:36:52;;;;;;;3.65;2.45;;;8.10;99.90;;;;;;5484380;26;20807;-56
2024/04/23 07:39:18;;;;;;;4.68;2.42;;;8.20;99.90;;;;;;5453061;26;19999;-55
2024/04/23 07:41:43;;;;;;;4.95;3.03;;;8.40;99.90;;;;;;5483386;26;19998;-56
2024/04/23 07:44:09;;;;;;;3.38;2.58;;;8.50;99.90;;;;;;5489127;26;20002;-57
2024/04/23 07:46:34;;;;;;;3.67;1.90;;;8.50;99.90;;;;;;5489906;26;20601;-43
2024/04/23 07:49:00;;;;;;;5.85;3.03;;;8.40;99.90;;;;;;5489201;26;20002;-45
2024/04/23 07:51:30;;;;;;;4.60;2.63;;;8.60;99.90;;;;;;5489553;26;19994;-43
2024/04/23 07:53:56;;;;;;;2.55;2.30;;;8.90;99.90;;;;;;5486670;26;20312;-41
2024/04/23 07:56:22;;;;;;;7.90;2.83;;;9.10;99.90;;;;;;5478147;26;20031;-45
2024/04/23 07:58:48;;;;;;;3.95;2.45;;;9.20;99.90;;;;;;5490446;26;20787;-45
2024/04/23 08:01:14;;;;;;;2.90;2.10;;;9.20;99.90;;;;;;5489395;26;19994;-45
2024/04/23 08:03:40;;;;;;;4.82;2.10;;;9.20;99.90;;;;;;5488677;26;20008;-46
2024/04/23 08:06:05;;;;;;;6.22;2.72;;;9.30;99.90;;;;;;5489206;26;19994;-45
2024/04/23 08:08:31;;;;;;;7.63;2.63;;;9.30;99.90;;;;;;5489208;26;20009;-46
2024/04/23 08:10:57;;;;;;;5.95;2.53;;;9.40;99.90;;;;;;5456968;26;20420;-48
2024/04/23 08:13:22;;;;;;;3.45;1.75;;;9.40;99.90;;;;;;5488912;26;19991;-45
2024/04/23 08:15:48;;;;;;;2.28;1.52;;;9.30;99.90;;;;;;5490078;26;20021;-43
2024/04/23 08:18:14;;;;;;;1.95;1.75;;;9.40;99.90;;;;;;5488692;26;20066;-49
2024/04/23 08:20:39;;;;;;;4.15;2.00;;;9.60;99.90;;;;;;5488930;26;20404;-46
2024/04/23 08:23:05;;;;;;;8.23;2.30;;;9.70;99.90;;;;;;5488911;26;19994;-62
2024/04/23 08:25:31;;;;;;;2.40;1.50;;;10.00;99.90;;;;;;5488959;26;20001;-47
2024/04/23 08:27:56;;;;;;;2.33;1.98;;;10.30;99.90;;;;;;5488766;26;20005;-47
2024/04/23 08:30:22;;;;;;;4.72;1.95;;;10.60;99.90;;;;;;5487112;26;20443;-45
2024/04/23 08:32:48;;;;;;;2.67;2.33;;;10.70;99.90;;;;;;5483293;26;19998;-45
2024/04/23 08:35:14;;;;;;;3.30;2.38;;;10.70;99.90;;;;;;5488816;26;20121;-46
2024/04/23 08:37:40;;;;;;;2.50;1.95;;;10.70;99.90;;;;;;5488947;26;20469;-46
2024/04/23 08:40:08;;;;;;;8.38;1.73;;;10.70;99.90;;;;;;5485488;26;20002;-44
2024/04/23 08:42:38;;;;;;;6.32;1.83;;;10.70;99.90;;;;;;5475958;26;20496;-45
2024/04/23 08:45:06;;;;;;;3.30;1.77;;;10.70;99.40;;;;;;5488465;26;20022;-46
2024/04/23 08:47:33;;;;;;;5.90;2.00;;;10.70;99.90;;;;;;5465207;26;20062;-43
2024/04/23 08:49:59;;;;;;;10.40;1.77;;;10.90;99.90;;;;;;5484911;26;20009;-46
2024/04/23 08:52:26;;;;;;;6.25;2.00;;;10.80;98.90;;;;;;5487611;26;19994;-56
2024/04/23 08:54:52;;;;;;;2.70;2.17;;;10.60;99.90;;;;;;5487958;26;20022;-54
2024/04/23 08:57:19;;;;;;;2.90;2.03;;;10.60;99.90;;;;;;5488335;26;20005;-43
2024/04/23 08:59:46;;;;;;;3.20;2.42;;;10.40;99.90;;;;;;5456202;26;19994;-43
2024/04/23 09:02:30;;;;;;;2.95;1.95;;;10.10;99.90;;;;;;5478689;26;20405;-47
2024/04/23 09:04:57;;;;;;;6.40;2.03;;;9.70;99.90;;;;;;5482190;26;20458;-44
2024/04/23 09:07:24;;;;;;;3.33;2.15;;;10.10;99.90;;;;;;5455886;26;19990;-45
2024/04/23 09:09:50;;;;;;;5.70;1.60;;;10.50;99.90;;;;;;5488101;26;20404;-48
2024/04/23 09:12:16;;;;;;;2.10;1.60;;;10.90;99.90;;;;;;5456041;26;20416;-48
2024/04/23 09:14:44;;;;;;;2.20;1.77;;;11.20;99.80;;;;;;5488363;26;20062;-50
2024/04/23 09:17:10;;;;;;;3.63;1.55;;;11.80;99.90;;;;;;5460262;26;20035;-53
2024/04/23 09:19:36;;;;;;;1.75;1.48;;;12.10;99.00;;;;;;5491751;26;20894;-48
2024/04/23 09:22:04;;;;;;;2.70;1.75;;;12.60;99.20;;;;;;5479475;26;19991;-44
2024/04/23 09:24:31;;;;;;;3.33;1.50;;;12.90;94.90;;;;;;5491058;26;20002;-44
2024/04/23 09:26:57;;;;;;;1.70;1.50;;;13.20;97.00;;;;;;5459809;26;20329;-46
2024/04/23 09:29:27;;;;;;;3.20;2.25;;;13.80;96.40;;;;;;5459211;26;20463;-58
2024/04/23 09:31:53;;;;;;;3.53;1.20;;;14.20;95.90;;;;;;5491522;26;20002;-48
2024/04/23 09:34:26;;;;;;;1.60;1.30;;;14.60;94.30;;;;;;5459164;26;20066;-46
2024/04/23 09:36:53;;;;;;;3.40;1.55;;;15.00;92.10;;;;;;5491162;26;20066;-46
2024/04/23 09:39:19;;;;;;;2.47;1.58;;;15.20;92.70;;;;;;5492329;26;20400;-46
2024/04/23 09:41:57;;;;;;;2.33;1.50;;;15.40;90.90;;;;;;5490866;26;20024;-47
2024/04/23 09:44:24;;;;;;;2.75;1.63;;;15.30;90.80;;;;;;5491430;26;20078;-48
2024/04/23 09:46:50;;;;;;;1.92;1.52;;;15.50;91.60;;;;;;5459661;26;19994;-45
2024/04/23 09:49:19;;;;;;;1.38;1.25;;;15.70;90.40;;;;;;5491241;26;20370;-50
2024/04/23 09:51:45;;;;;;;1.65;1.55;;;15.40;90.40;;;;;;5477767;26;20021;-46
2024/04/23 09:54:10;;;;;;;1.50;1.05;;;14.70;89.00;;;;;;5454321;26;19995;-52
2024/04/23 09:56:36;;;;;;;2.22;1.05;;;14.70;91.00;;;;;;5470135;26;19993;-47
2024/04/23 09:59:01;;;;;;;1.40;1.30;;;14.70;89.20;;;;;;5527859;26;20073;-45
2024/04/23 10:01:28;;;;;;;2.08;1.20;;;14.70;88.50;;;;;;5519023;26;19998;-50
2024/04/23 10:03:59;;;;;;;3.05;1.23;;;14.50;88.90;;;;;;5457856;26;20034;-47
2024/04/23 10:06:26;;;;;;;3.03;1.75;;;14.40;90.00;;;;;;5491053;26;20488;-45
2024/04/23 10:08:58;;;;;;;;;;;13.90;90.10;;;;;;5491285;26;19998;-47
2024/04/23 10:11:27;;;;;;;1.50;1.10;;;13.10;89.20;;;;;;5459420;26;19943;-51
2024/04/23 10:13:59;;;;;;;2.85;1.40;;;12.70;90.40;;;;;;5491864;26;19994;-47
2024/04/23 10:16:39;;;;;;;1.35;1.25;;;13.20;91.50;;;;;;5490661;26;20446;-49
2024/04/23 10:19:09;;;;;;;2.67;1.67;;;13.80;91.90;;;;;;5457182;26;19994;-54
2024/04/23 10:21:39;;;;;;;2.42;1.60;;;14.20;88.90;;;;;;5490343;26;20523;-49
2024/04/23 10:24:08;;;;;;;1.25;1.15;;;14.80;87.40;;;;;;5491054;26;19994;-46
2024/04/23 10:26:37;;;;;;;3.00;1.45;;;15.00;90.30;;;;;;5490078;26;20002;-43
2024/04/23 10:29:03;;;;;;;1.45;1.23;;;15.30;90.20;;;;;;5458445;26;20453;-46
2024/04/23 10:31:30;;;;;;;3.17;2.63;;;15.10;89.00;;;;;;5482491;26;20524;-43
2024/04/23 10:33:56;;;;;;;3.42;1.90;;;14.00;91.50;;;;;;5485455;26;19997;-48
2024/04/23 10:36:24;;;;;;;2.25;2.05;;;13.60;93.30;;;;;;5490417;26;20380;-45
2024/04/23 10:38:50;;;;;;;4.15;1.77;;;13.00;93.70;;;;;;5457043;26;20003;-49
2024/04/23 10:41:17;;;;;;;3.88;2.30;;;12.70;94.70;;;;;;5453734;26;20005;-43
2024/04/23 10:43:43;;;;;;;5.53;2.80;;;12.40;96.10;;;;;;5461236;26;20005;-43
2024/04/23 10:46:10;;;;;;;2.88;2.38;;;12.00;95.40;;;;;;5490155;26;20002;-44
2024/04/23 10:48:37;;;;;;;3.63;2.35;;;11.70;95.90;;;;;;5490644;26;20467;-47
2024/04/23 10:51:04;;;;;;;3.58;2.22;;;11.60;95.70;;;;;;5463890;26;19995;-46
2024/04/23 10:53:34;;;;;;;4.88;2.05;;;11.80;97.00;;;;;;5453148;26;20009;-50
2024/04/23 10:56:00;;;;;;;2.45;2.25;;;12.30;95.50;;;;;;5477004;26;19994;-65
2024/04/23 10:58:25;;;;;;;4.30;2.22;;;12.40;94.80;;;;;;5490242;26;20006;-49
2024/04/23 11:01:01;;;;;;;8.40;2.60;;;12.70;95.80;;;;;;5489622;26;20067;-44
2024/04/23 11:03:34;;;;;;;2.60;2.08;;;12.60;94.20;;;;;;5489543;26;20005;-42
2024/04/23 11:06:00;;;;;;;4.07;2.38;;;12.10;94.70;;;;;;5458253;26;20003;-45
2024/04/23 11:08:30;;;;;;;2.15;1.98;;;11.80;95.50;;;;;;5490091;26;19995;-47
2024/04/23 11:11:02;;;;;;;3.50;2.45;;;11.30;96.30;;;;;;5489817;26;20026;-47
2024/04/23 11:13:30;;;;;;;2.75;2.30;;;10.90;97.20;;;;;;5489834;26;20479;-42
2024/04/23 11:15:58;;;;;;;3.37;2.47;;;10.80;96.80;;;;;;5467378;26;20479;-56
2024/04/23 11:18:25;;;;;;;4.55;2.67;;;10.50;96.30;;;;;;5453451;26;20018;-53
2024/04/23 11:20:58;;;;;;;3.80;2.42;;;10.70;96.90;;;;;;5454097;26;20031;-56
2024/04/23 11:23:26;;;;;;;3.03;2.15;;;11.10;95.70;;;;;;5453096;26;19999;-55
2024/04/23 11:25:54;;;;;;;3.53;2.00;;;11.10;95.90;;;;;;5441759;26;20010;-55
2024/04/23 11:28:20;;;;;;;4.13;2.60;;;11.20;96.70;;;;;;5489869;26;20028;-53
2024/04/23 11:30:54;;;;;;;3.55;2.20;;;11.60;96.60;;;;;;5489369;26;19995;-53
2024/04/23 11:33:20;;;;;;;4.43;2.60;;;11.90;96.70;;;;;;5489388;26;20372;-55
2024/04/23 11:35:53;;;;;;;3.88;2.90;;;11.90;97.50;;;;;;5457411;26;20009;-52
2024/04/23 11:38:18;;;;;;;6.95;2.10;;;11.70;97.40;;;;;;5494456;26;20008;-56
2024/04/23 11:40:46;;;;;;;2.95;2.40;;;11.50;96.80;;;;;;5526491;26;20325;-56
2024/04/23 11:43:20;;;;;;;8.60;2.30;;;11.20;97.80;;;;;;5488909;26;20005;-55
2024/04/23 11:45:47;;;;;;;5.80;3.17;;;11.10;97.40;;;;;;5489073;26;20066;-51
2024/04/23 11:48:14;;;;;;;3.13;2.38;;;10.90;98.40;;;;;;5489719;26;19994;-54
2024/04/23 11:50:40;;;;;;;5.10;2.33;;;11.20;97.60;;;;;;5489143;26;20009;-57
2024/04/23 11:53:06;;;;;;;4.50;2.25;;;11.40;96.40;;;;;;5489073;26;20002;-57
2024/04/23 11:55:32;;;;;;;2.47;2.10;;;11.60;96.90;;;;;;5499232;26;20002;-54
2024/04/23 11:57:58;;;;;;;3.80;2.20;;;11.50;97.10;;;;;;5523502;26;20442;-53
2024/04/23 12:00:28;;;;;;;2.78;2.22;;;11.60;95.80;;;;;;5488198;26;20012;-56
2024/04/23 12:02:54;;;;;;;3.33;2.40;;;11.60;96.90;;;;;;5488963;26;19998;-54
2024/04/23 12:05:21;;;;;;;4.53;2.88;;;12.00;97.50;;;;;;5488716;26;19994;-53
2024/04/23 12:07:47;;;;;;;4.00;2.83;;;11.70;97.80;;;;;;5489625;26;20034;-49
2024/04/23 12:10:33;;;;;;;5.03;3.10;;;11.60;97.00;;;;;;5488932;26;20013;-55
2024/04/23 12:13:00;;;;;;;3.17;2.40;;;11.30;97.60;;;;;;5506011;26;20073;-54
2024/04/23 12:15:26;;;;;;;5.57;2.67;;;11.50;97.80;;;;;;5489678;26;20012;-55
2024/04/23 12:17:52;;;;;;;3.35;2.30;;;11.50;97.80;;;;;;5488960;26;20447;-68
2024/04/23 12:20:19;;;;;;;5.13;3.08;;;11.80;96.60;;;;;;5488855;26;20073;-57
2024/04/23 12:22:45;;;;;;;5.63;2.85;;;11.90;96.70;;;;;;5488924;26;20066;-55
2024/04/23 12:25:12;;;;;;;4.25;3.25;;;12.10;96.80;;;;;;5488215;26;20055;-53
2024/04/23 12:27:37;;;;;;;4.55;2.67;;;11.90;97.70;;;;;;5488956;26;20324;-54
2024/04/23 12:30:07;;;;;;;4.30;2.50;;;11.80;96.90;;;;;;5505127;26;19997;-56
2024/04/23 12:32:33;;;;;;;3.17;2.33;;;11.80;98.50;;;;;;5525455;26;20013;-55
2024/04/23 12:34:59;;;;;;;6.50;2.78;;;11.80;96.30;;;;;;5492975;26;20474;-55
2024/04/23 12:37:25;;;;;;;3.65;2.72;;;11.80;95.10;;;;;;5487960;26;19998;-56
2024/04/23 12:39:53;;;;;;;4.95;2.50;;;11.70;95.20;;;;;;5488532;26;20089;-56
2024/04/23 12:42:24;;;;;;;7.35;2.33;;;11.90;94.70;;;;;;5487896;26;20009;-55
2024/04/23 12:44:50;;;;;;;2.60;2.00;;;12.00;96.40;;;;;;5453493;26;20013;-59
2024/04/23 12:47:16;;;;;;;3.78;2.45;;;12.20;95.30;;;;;;5509606;26;20438;-55
2024/04/23 12:49:41;;;;;;;6.72;2.72;;;12.20;95.10;;;;;;5500294;26;19998;-54
2024/04/23 12:52:07;;;;;;;2.53;2.20;;;12.20;95.80;;;;;;5488279;26;19994;-54
2024/04/23 12:54:33;;;;;;;6.13;2.25;;;12.20;96.20;;;;;;5488422;26;19994;-55
2024/04/23 12:56:58;;;;;;;3.05;2.33;;;12.10;95.70;;;;;;5488310;26;19991;-51
2024/04/23 12:59:25;;;;;;;3.28;1.98;;;12.20;94.80;;;;;;5488219;26;20071;-56
2024/04/23 13:01:51;;;;;;;4.28;2.70;;;12.40;95.60;;;;;;5488079;26;19990;-57